Austin, Texas
Traffic Map
Current Weather Conditions
Austin, Texas
Overcast
Overcast
26°
Feels Like: 27°
Wind Chill: 26° Ceiling: 1200
Heat Index: 27° Visibility: 10mi
Dew Point: 23° Wind: 6mph
Humidity: 84% Direction: ° ()
Pressure: 29.99in Gusts: 0mph
Raw Report DataKATT 040751Z AUTO VRB05KT 10SM OVC012 26/23 A2999 RMK AO2 SLP140 T02560228
Traffic Incident Summary
Active as of:
Severity:
Category:
InformationThere was an issue retrieving the traffic information for this location. Please try a different location or try again shortly.
Advertisements
Track Severe Weather on mobile